sensor_id;sensor_type;location;lat;lon;timestamp;temperature;humidity
13322;DHT22;6730;46.248;6.930;2023-07-13T00:01:59;20.10;99.90
13322;DHT22;6730;46.248;6.930;2023-07-13T00:04:25;19.90;99.90
13322;DHT22;6730;46.248;6.930;2023-07-13T00:06:51;19.70;99.90
13322;DHT22;6730;46.248;6.930;2023-07-13T00:09:18;19.40;99.90
13322;DHT22;6730;46.248;6.930;2023-07-13T00:11:44;19.10;99.90
13322;DHT22;6730;46.248;6.930;2023-07-13T00:14:11;19.00;99.90
13322;DHT22;6730;46.248;6.930;2023-07-13T00:16:39;18.90;99.90
13322;DHT22;6730;46.248;6.930;2023-07-13T00:19:06;18.80;99.90
13322;DHT22;6730;46.248;6.930;2023-07-13T00:21:32;19.10;99.90
13322;DHT22;6730;46.248;6.930;2023-07-13T00:23:58;19.30;99.90
13322;DHT22;6730;46.248;6.930;2023-07-13T00:26:24;19.20;99.90
13322;DHT22;6730;46.248;6.930;2023-07-13T00:28:49;19.10;99.90
13322;DHT22;6730;46.248;6.930;2023-07-13T00:31:15;19.00;99.90
13322;DHT22;6730;46.248;6.930;2023-07-13T00:33:41;19.20;99.90
13322;DHT22;6730;46.248;6.930;2023-07-13T00:36:08;19.40;99.90
13322;DHT22;6730;46.248;6.930;2023-07-13T00:38:33;19.20;99.90
13322;DHT22;6730;46.248;6.930;2023-07-13T00:40:59;19.10;99.90
13322;DHT22;6730;46.248;6.930;2023-07-13T00:43:27;19.00;99.90
13322;DHT22;6730;46.248;6.930;2023-07-13T00:46:26;19.00;99.90
13322;DHT22;6730;46.248;6.930;2023-07-13T00:48:56;19.10;99.90
13322;DHT22;6730;46.248;6.930;2023-07-13T00:51:30;19.10;99.90
13322;DHT22;6730;46.248;6.930;2023-07-13T00:53:59;19.30;99.90
13322;DHT22;6730;46.248;6.930;2023-07-13T00:56:26;19.70;99.90
13322;DHT22;6730;46.248;6.930;2023-07-13T00:58:56;19.70;99.90
13322;DHT22;6730;46.248;6.930;2023-07-13T01:01:22;19.30;99.90
13322;DHT22;6730;46.248;6.930;2023-07-13T01:03:51;19.00;99.90
13322;DHT22;6730;46.248;6.930;2023-07-13T01:06:17;18.90;99.90
13322;DHT22;6730;46.248;6.930;2023-07-13T01:08:43;18.80;99.90
13322;DHT22;6730;46.248;6.930;2023-07-13T01:11:08;18.80;99.90
13322;DHT22;6730;46.248;6.930;2023-07-13T01:13:34;19.20;99.90
13322;DHT22;6730;46.248;6.930;2023-07-13T01:16:04;19.00;99.90
13322;DHT22;6730;46.248;6.930;2023-07-13T01:18:32;19.20;99.90
13322;DHT22;6730;46.248;6.930;2023-07-13T01:21:03;19.10;99.90
13322;DHT22;6730;46.248;6.930;2023-07-13T01:23:30;19.10;99.90
13322;DHT22;6730;46.248;6.930;2023-07-13T01:25:57;19.20;99.90
13322;DHT22;6730;46.248;6.930;2023-07-13T01:28:24;19.30;99.90
13322;DHT22;6730;46.248;6.930;2023-07-13T01:30:53;19.30;99.90
13322;DHT22;6730;46.248;6.930;2023-07-13T01:33:19;19.30;99.90
13322;DHT22;6730;46.248;6.930;2023-07-13T01:35:46;19.10;99.90
13322;DHT22;6730;46.248;6.930;2023-07-13T01:38:15;19.00;99.90
13322;DHT22;6730;46.248;6.930;2023-07-13T01:40:41;18.80;99.90
13322;DHT22;6730;46.248;6.930;2023-07-13T01:43:07;18.80;99.90
13322;DHT22;6730;46.248;6.930;2023-07-13T01:45:33;18.80;99.90
13322;DHT22;6730;46.248;6.930;2023-07-13T01:47:59;18.70;99.90
13322;DHT22;6730;46.248;6.930;2023-07-13T01:50:25;18.50;99.90
13322;DHT22;6730;46.248;6.930;2023-07-13T01:52:59;18.50;99.90
13322;DHT22;6730;46.248;6.930;2023-07-13T01:55:24;18.40;99.90
13322;DHT22;6730;46.248;6.930;2023-07-13T01:57:50;18.40;99.90
13322;DHT22;6730;46.248;6.930;2023-07-13T02:00:16;18.40;99.90
13322;DHT22;6730;46.248;6.930;2023-07-13T02:02:42;18.50;99.90
13322;DHT22;6730;46.248;6.930;2023-07-13T02:05:08;19.00;99.90
13322;DHT22;6730;46.248;6.930;2023-07-13T02:07:34;19.00;99.90
13322;DHT22;6730;46.248;6.930;2023-07-13T02:09:59;19.10;99.90
13322;DHT22;6730;46.248;6.930;2023-07-13T02:12:25;18.70;99.90
13322;DHT22;6730;46.248;6.930;2023-07-13T02:14:51;18.40;99.90
13322;DHT22;6730;46.248;6.930;2023-07-13T02:17:16;18.10;99.90
13322;DHT22;6730;46.248;6.930;2023-07-13T02:19:42;18.30;99.90
13322;DHT22;6730;46.248;6.930;2023-07-13T02:22:08;18.70;99.90
13322;DHT22;6730;46.248;6.930;2023-07-13T02:24:33;19.00;99.90
13322;DHT22;6730;46.248;6.930;2023-07-13T02:26:59;18.80;99.90
13322;DHT22;6730;46.248;6.930;2023-07-13T02:29:25;18.80;99.90
13322;DHT22;6730;46.248;6.930;2023-07-13T02:31:50;19.00;99.90
13322;DHT22;6730;46.248;6.930;2023-07-13T02:34:16;18.90;99.90
13322;DHT22;6730;46.248;6.930;2023-07-13T02:36:42;18.80;99.90
13322;DHT22;6730;46.248;6.930;2023-07-13T02:39:07;18.90;99.90
13322;DHT22;6730;46.248;6.930;2023-07-13T02:41:34;19.00;99.90
13322;DHT22;6730;46.248;6.930;2023-07-13T02:43:59;19.20;99.90
13322;DHT22;6730;46.248;6.930;2023-07-13T02:46:36;19.30;99.90
13322;DHT22;6730;46.248;6.930;2023-07-13T02:49:03;19.20;99.90
13322;DHT22;6730;46.248;6.930;2023-07-13T02:51:28;18.80;99.90
13322;DHT22;6730;46.248;6.930;2023-07-13T02:53:54;18.60;99.90
13322;DHT22;6730;46.248;6.930;2023-07-13T02:56:25;18.60;99.90
13322;DHT22;6730;46.248;6.930;2023-07-13T02:58:52;18.60;99.90
13322;DHT22;6730;46.248;6.930;2023-07-13T03:01:17;18.80;99.90
13322;DHT22;6730;46.248;6.930;2023-07-13T03:03:45;18.90;99.90
13322;DHT22;6730;46.248;6.930;2023-07-13T03:06:11;18.80;99.90
13322;DHT22;6730;46.248;6.930;2023-07-13T03:08:38;18.80;99.90
13322;DHT22;6730;46.248;6.930;2023-07-13T03:11:12;18.80;99.90
13322;DHT22;6730;46.248;6.930;2023-07-13T03:13:39;18.70;99.90
13322;DHT22;6730;46.248;6.930;2023-07-13T03:16:05;18.30;99.90
13322;DHT22;6730;46.248;6.930;2023-07-13T03:18:31;18.30;99.90
13322;DHT22;6730;46.248;6.930;2023-07-13T03:20:57;18.70;99.90
13322;DHT22;6730;46.248;6.930;2023-07-13T03:23:23;18.80;99.90
13322;DHT22;6730;46.248;6.930;2023-07-13T03:26:00;18.90;99.90
13322;DHT22;6730;46.248;6.930;2023-07-13T03:28:26;18.90;99.90
13322;DHT22;6730;46.248;6.930;2023-07-13T03:31:09;19.10;99.90
13322;DHT22;6730;46.248;6.930;2023-07-13T03:33:36;19.10;99.90
13322;DHT22;6730;46.248;6.930;2023-07-13T03:36:06;19.00;99.90
13322;DHT22;6730;46.248;6.930;2023-07-13T03:38:33;19.00;99.90
13322;DHT22;6730;46.248;6.930;2023-07-13T03:40:59;19.00;99.90
13322;DHT22;6730;46.248;6.930;2023-07-13T03:43:25;19.00;99.90
13322;DHT22;6730;46.248;6.930;2023-07-13T03:45:51;19.00;99.90
13322;DHT22;6730;46.248;6.930;2023-07-13T03:48:16;18.70;99.90
13322;DHT22;6730;46.248;6.930;2023-07-13T03:50:42;18.50;99.90
13322;DHT22;6730;46.248;6.930;2023-07-13T03:53:11;18.40;99.90
13322;DHT22;6730;46.248;6.930;2023-07-13T03:55:37;18.50;99.90
13322;DHT22;6730;46.248;6.930;2023-07-13T04:00:52;18.70;99.90
13322;DHT22;6730;46.248;6.930;2023-07-13T04:03:17;18.70;99.90
13322;DHT22;6730;46.248;6.930;2023-07-13T04:05:43;18.60;99.90
13322;DHT22;6730;46.248;6.930;2023-07-13T04:08:09;18.50;99.90
13322;DHT22;6730;46.248;6.930;2023-07-13T04:10:35;18.70;99.90
13322;DHT22;6730;46.248;6.930;2023-07-13T04:13:00;18.90;99.90
13322;DHT22;6730;46.248;6.930;2023-07-13T04:15:30;19.00;99.90
13322;DHT22;6730;46.248;6.930;2023-07-13T04:17:56;19.10;99.90
13322;DHT22;6730;46.248;6.930;2023-07-13T04:20:26;19.10;99.90
13322;DHT22;6730;46.248;6.930;2023-07-13T04:22:52;19.00;99.90
13322;DHT22;6730;46.248;6.930;2023-07-13T04:25:20;19.00;99.90
13322;DHT22;6730;46.248;6.930;2023-07-13T04:27:46;19.00;99.90
13322;DHT22;6730;46.248;6.930;2023-07-13T04:30:12;18.90;99.90
13322;DHT22;6730;46.248;6.930;2023-07-13T04:32:38;18.70;99.90
13322;DHT22;6730;46.248;6.930;2023-07-13T04:35:05;18.20;99.90
13322;DHT22;6730;46.248;6.930;2023-07-13T04:37:31;17.90;99.90
13322;DHT22;6730;46.248;6.930;2023-07-13T04:40:01;17.80;99.90
13322;DHT22;6730;46.248;6.930;2023-07-13T04:42:28;17.80;99.90
13322;DHT22;6730;46.248;6.930;2023-07-13T04:44:57;17.80;99.90
13322;DHT22;6730;46.248;6.930;2023-07-13T04:47:23;17.80;99.90
13322;DHT22;6730;46.248;6.930;2023-07-13T04:49:48;17.90;99.90
13322;DHT22;6730;46.248;6.930;2023-07-13T04:52:35;18.10;99.90
13322;DHT22;6730;46.248;6.930;2023-07-13T04:55:01;18.20;99.90
13322;DHT22;6730;46.248;6.930;2023-07-13T04:57:27;17.40;99.90
13322;DHT22;6730;46.248;6.930;2023-07-13T04:59:53;16.90;99.90
13322;DHT22;6730;46.248;6.930;2023-07-13T05:02:20;16.60;99.90
13322;DHT22;6730;46.248;6.930;2023-07-13T05:04:47;16.50;99.90
13322;DHT22;6730;46.248;6.930;2023-07-13T05:07:13;16.60;99.90
13322;DHT22;6730;46.248;6.930;2023-07-13T05:09:39;16.60;99.90
13322;DHT22;6730;46.248;6.930;2023-07-13T05:12:06;16.60;99.90
13322;DHT22;6730;46.248;6.930;2023-07-13T05:14:32;16.70;99.90
13322;DHT22;6730;46.248;6.930;2023-07-13T05:16:58;16.80;99.90
13322;DHT22;6730;46.248;6.930;2023-07-13T05:19:23;16.90;99.90
13322;DHT22;6730;46.248;6.930;2023-07-13T05:21:49;16.80;99.90
13322;DHT22;6730;46.248;6.930;2023-07-13T05:24:15;16.70;99.90
13322;DHT22;6730;46.248;6.930;2023-07-13T05:26:40;16.70;99.90
13322;DHT22;6730;46.248;6.930;2023-07-13T05:29:06;16.70;99.90
13322;DHT22;6730;46.248;6.930;2023-07-13T05:31:31;16.60;99.90
13322;DHT22;6730;46.248;6.930;2023-07-13T05:33:57;16.60;99.90
13322;DHT22;6730;46.248;6.930;2023-07-13T05:36:22;16.60;99.90
13322;DHT22;6730;46.248;6.930;2023-07-13T05:38:48;16.60;99.90
13322;DHT22;6730;46.248;6.930;2023-07-13T05:41:14;16.70;99.90
13322;DHT22;6730;46.248;6.930;2023-07-13T05:43:39;16.90;99.90
13322;DHT22;6730;46.248;6.930;2023-07-13T05:46:05;17.20;99.90
13322;DHT22;6730;46.248;6.930;2023-07-13T05:48:31;17.20;99.90
13322;DHT22;6730;46.248;6.930;2023-07-13T05:50:56;17.40;99.90
13322;DHT22;6730;46.248;6.930;2023-07-13T05:53:22;17.90;99.90
13322;DHT22;6730;46.248;6.930;2023-07-13T05:55:48;18.10;99.90
13322;DHT22;6730;46.248;6.930;2023-07-13T05:58:16;18.40;99.90
13322;DHT22;6730;46.248;6.930;2023-07-13T06:00:43;18.30;99.90
13322;DHT22;6730;46.248;6.930;2023-07-13T06:03:09;18.30;99.90
13322;DHT22;6730;46.248;6.930;2023-07-13T06:05:36;18.50;99.90
13322;DHT22;6730;46.248;6.930;2023-07-13T06:08:03;18.50;99.90
13322;DHT22;6730;46.248;6.930;2023-07-13T06:10:31;18.10;99.90
13322;DHT22;6730;46.248;6.930;2023-07-13T06:12:57;17.70;99.90
13322;DHT22;6730;46.248;6.930;2023-07-13T06:15:23;17.40;99.90
13322;DHT22;6730;46.248;6.930;2023-07-13T06:17:48;17.30;99.90
13322;DHT22;6730;46.248;6.930;2023-07-13T06:20:14;17.80;99.90
13322;DHT22;6730;46.248;6.930;2023-07-13T06:22:40;18.30;99.90
13322;DHT22;6730;46.248;6.930;2023-07-13T06:25:06;18.70;99.90
13322;DHT22;6730;46.248;6.930;2023-07-13T06:27:31;19.00;99.90
13322;DHT22;6730;46.248;6.930;2023-07-13T06:29:57;19.20;99.90
13322;DHT22;6730;46.248;6.930;2023-07-13T06:32:23;19.40;99.90
13322;DHT22;6730;46.248;6.930;2023-07-13T06:34:48;19.60;99.90
13322;DHT22;6730;46.248;6.930;2023-07-13T06:37:14;19.60;99.90
13322;DHT22;6730;46.248;6.930;2023-07-13T06:39:40;19.50;99.90
13322;DHT22;6730;46.248;6.930;2023-07-13T06:42:06;19.30;99.90
13322;DHT22;6730;46.248;6.930;2023-07-13T06:44:32;19.30;99.90
13322;DHT22;6730;46.248;6.930;2023-07-13T06:46:57;18.90;99.90
13322;DHT22;6730;46.248;6.930;2023-07-13T06:49:23;18.50;99.90
13322;DHT22;6730;46.248;6.930;2023-07-13T06:51:49;18.00;99.90
13322;DHT22;6730;46.248;6.930;2023-07-13T06:54:14;17.80;99.90
13322;DHT22;6730;46.248;6.930;2023-07-13T06:56:40;17.60;99.90
13322;DHT22;6730;46.248;6.930;2023-07-13T06:59:05;17.50;99.90
13322;DHT22;6730;46.248;6.930;2023-07-13T07:01:31;17.40;99.90
13322;DHT22;6730;46.248;6.930;2023-07-13T07:03:57;17.40;99.90
13322;DHT22;6730;46.248;6.930;2023-07-13T07:06:23;17.20;99.90
13322;DHT22;6730;46.248;6.930;2023-07-13T07:08:50;17.00;99.90
13322;DHT22;6730;46.248;6.930;2023-07-13T07:11:23;16.90;99.90
13322;DHT22;6730;46.248;6.930;2023-07-13T07:13:50;17.10;99.90
13322;DHT22;6730;46.248;6.930;2023-07-13T07:16:16;17.10;99.90
13322;DHT22;6730;46.248;6.930;2023-07-13T07:18:42;17.10;99.90
13322;DHT22;6730;46.248;6.930;2023-07-13T07:21:08;17.40;99.90
13322;DHT22;6730;46.248;6.930;2023-07-13T07:23:34;17.30;99.90
13322;DHT22;6730;46.248;6.930;2023-07-13T07:26:00;16.90;99.90
13322;DHT22;6730;46.248;6.930;2023-07-13T07:28:25;16.70;99.90
13322;DHT22;6730;46.248;6.930;2023-07-13T07:30:54;16.70;99.90
13322;DHT22;6730;46.248;6.930;2023-07-13T07:33:20;16.70;99.90
13322;DHT22;6730;46.248;6.930;2023-07-13T07:35:46;16.50;99.90
13322;DHT22;6730;46.248;6.930;2023-07-13T07:38:12;16.50;99.90
13322;DHT22;6730;46.248;6.930;2023-07-13T07:40:39;16.50;99.90
13322;DHT22;6730;46.248;6.930;2023-07-13T07:43:09;16.40;99.90
13322;DHT22;6730;46.248;6.930;2023-07-13T07:45:35;16.30;99.90
13322;DHT22;6730;46.248;6.930;2023-07-13T07:48:03;16.50;99.90
13322;DHT22;6730;46.248;6.930;2023-07-13T07:50:29;16.40;99.90
13322;DHT22;6730;46.248;6.930;2023-07-13T07:52:55;16.40;99.90
13322;DHT22;6730;46.248;6.930;2023-07-13T07:55:24;16.60;99.90
13322;DHT22;6730;46.248;6.930;2023-07-13T07:57:52;16.90;99.90
13322;DHT22;6730;46.248;6.930;2023-07-13T08:00:18;16.80;99.90
13322;DHT22;6730;46.248;6.930;2023-07-13T08:02:45;16.80;99.90
13322;DHT22;6730;46.248;6.930;2023-07-13T08:05:11;17.10;99.90
13322;DHT22;6730;46.248;6.930;2023-07-13T08:07:38;17.40;99.90
13322;DHT22;6730;46.248;6.930;2023-07-13T08:10:05;17.60;99.90
13322;DHT22;6730;46.248;6.930;2023-07-13T08:12:34;17.40;99.90
13322;DHT22;6730;46.248;6.930;2023-07-13T08:15:00;17.20;99.90
13322;DHT22;6730;46.248;6.930;2023-07-13T08:17:26;17.00;99.90
13322;DHT22;6730;46.248;6.930;2023-07-13T08:19:52;16.90;99.90
13322;DHT22;6730;46.248;6.930;2023-07-13T08:22:17;16.70;99.90
13322;DHT22;6730;46.248;6.930;2023-07-13T08:24:43;16.80;99.90
13322;DHT22;6730;46.248;6.930;2023-07-13T08:27:10;16.70;99.90
13322;DHT22;6730;46.248;6.930;2023-07-13T08:29:37;16.60;99.90
13322;DHT22;6730;46.248;6.930;2023-07-13T08:32:04;16.50;99.90
13322;DHT22;6730;46.248;6.930;2023-07-13T08:34:30;16.50;99.90
13322;DHT22;6730;46.248;6.930;2023-07-13T08:36:56;16.50;99.90
13322;DHT22;6730;46.248;6.930;2023-07-13T08:39:22;16.50;99.90
13322;DHT22;6730;46.248;6.930;2023-07-13T08:41:51;16.50;99.90
13322;DHT22;6730;46.248;6.930;2023-07-13T08:44:39;16.50;99.90
13322;DHT22;6730;46.248;6.930;2023-07-13T08:47:07;16.50;99.90
13322;DHT22;6730;46.248;6.930;2023-07-13T08:49:35;16.60;99.90
13322;DHT22;6730;46.248;6.930;2023-07-13T08:52:29;16.90;99.90
13322;DHT22;6730;46.248;6.930;2023-07-13T08:54:52;16.80;99.90
13322;DHT22;6730;46.248;6.930;2023-07-13T08:57:23;16.90;99.90
13322;DHT22;6730;46.248;6.930;2023-07-13T08:59:50;16.70;99.90
13322;DHT22;6730;46.248;6.930;2023-07-13T09:02:53;16.70;99.90
13322;DHT22;6730;46.248;6.930;2023-07-13T09:05:30;16.60;99.90
13322;DHT22;6730;46.248;6.930;2023-07-13T09:11:02;16.80;99.90
13322;DHT22;6730;46.248;6.930;2023-07-13T09:13:47;16.90;99.90
13322;DHT22;6730;46.248;6.930;2023-07-13T09:16:16;17.40;99.90
13322;DHT22;6730;46.248;6.930;2023-07-13T09:18:45;17.90;99.90
13322;DHT22;6730;46.248;6.930;2023-07-13T09:21:13;18.30;99.90
13322;DHT22;6730;46.248;6.930;2023-07-13T09:23:40;18.50;99.90
13322;DHT22;6730;46.248;6.930;2023-07-13T09:26:11;18.40;99.90
13322;DHT22;6730;46.248;6.930;2023-07-13T09:28:43;18.20;99.90
13322;DHT22;6730;46.248;6.930;2023-07-13T09:31:29;17.80;99.90
13322;DHT22;6730;46.248;6.930;2023-07-13T09:33:57;17.80;99.90
13322;DHT22;6730;46.248;6.930;2023-07-13T09:36:26;18.20;99.90
13322;DHT22;6730;46.248;6.930;2023-07-13T09:44:28;18.00;99.90
13322;DHT22;6730;46.248;6.930;2023-07-13T09:46:56;18.20;99.90
13322;DHT22;6730;46.248;6.930;2023-07-13T09:49:32;18.20;99.90
13322;DHT22;6730;46.248;6.930;2023-07-13T09:52:03;18.00;99.90
13322;DHT22;6730;46.248;6.930;2023-07-13T09:54:33;18.20;99.90
13322;DHT22;6730;46.248;6.930;2023-07-13T09:56:59;17.90;99.90
13322;DHT22;6730;46.248;6.930;2023-07-13T09:59:30;18.00;99.90
13322;DHT22;6730;46.248;6.930;2023-07-13T10:01:56;18.20;99.90
13322;DHT22;6730;46.248;6.930;2023-07-13T10:04:33;18.40;99.90
13322;DHT22;6730;46.248;6.930;2023-07-13T10:07:07;18.40;99.90
13322;DHT22;6730;46.248;6.930;2023-07-13T10:09:33;18.50;99.90
13322;DHT22;6730;46.248;6.930;2023-07-13T10:11:59;18.50;99.90
13322;DHT22;6730;46.248;6.930;2023-07-13T10:14:25;19.10;99.90
13322;DHT22;6730;46.248;6.930;2023-07-13T10:16:55;19.60;99.90
13322;DHT22;6730;46.248;6.930;2023-07-13T10:19:25;20.00;99.90
13322;DHT22;6730;46.248;6.930;2023-07-13T10:21:56;20.00;99.90
13322;DHT22;6730;46.248;6.930;2023-07-13T10:24:22;20.00;99.90
13322;DHT22;6730;46.248;6.930;2023-07-13T10:27:01;19.90;99.90
13322;DHT22;6730;46.248;6.930;2023-07-13T10:29:34;19.60;99.90
13322;DHT22;6730;46.248;6.930;2023-07-13T10:32:01;19.50;99.90
13322;DHT22;6730;46.248;6.930;2023-07-13T10:34:26;19.60;99.90
13322;DHT22;6730;46.248;6.930;2023-07-13T10:36:53;19.70;99.90
13322;DHT22;6730;46.248;6.930;2023-07-13T10:39:20;19.90;99.90
13322;DHT22;6730;46.248;6.930;2023-07-13T10:41:54;19.80;99.90
13322;DHT22;6730;46.248;6.930;2023-07-13T10:44:31;19.80;99.90
13322;DHT22;6730;46.248;6.930;2023-07-13T10:47:04;19.90;99.90
13322;DHT22;6730;46.248;6.930;2023-07-13T10:49:33;19.50;99.90
13322;DHT22;6730;46.248;6.930;2023-07-13T10:52:01;19.70;99.90
13322;DHT22;6730;46.248;6.930;2023-07-13T10:54:30;20.00;99.90
13322;DHT22;6730;46.248;6.930;2023-07-13T10:57:16;20.20;99.90
13322;DHT22;6730;46.248;6.930;2023-07-13T10:59:48;20.10;99.90
13322;DHT22;6730;46.248;6.930;2023-07-13T11:02:25;20.00;99.90
13322;DHT22;6730;46.248;6.930;2023-07-13T11:04:53;20.10;99.90
13322;DHT22;6730;46.248;6.930;2023-07-13T11:07:23;20.20;99.90
13322;DHT22;6730;46.248;6.930;2023-07-13T11:09:54;20.20;99.90
13322;DHT22;6730;46.248;6.930;2023-07-13T11:22:52;20.40;99.90
13322;DHT22;6730;46.248;6.930;2023-07-13T11:28:14;20.60;99.90
13322;DHT22;6730;46.248;6.930;2023-07-13T11:36:18;20.70;99.90
13322;DHT22;6730;46.248;6.930;2023-07-13T11:41:56;20.70;99.90
13322;DHT22;6730;46.248;6.930;2023-07-13T11:44:24;20.80;99.90
13322;DHT22;6730;46.248;6.930;2023-07-13T11:46:58;20.80;99.90
13322;DHT22;6730;46.248;6.930;2023-07-13T11:49:30;21.00;99.90
13322;DHT22;6730;46.248;6.930;2023-07-13T11:51:57;20.90;99.90
13322;DHT22;6730;46.248;6.930;2023-07-13T11:54:34;20.90;99.90
13322;DHT22;6730;46.248;6.930;2023-07-13T11:57:03;20.90;99.90
13322;DHT22;6730;46.248;6.930;2023-07-13T11:59:32;20.90;99.90
13322;DHT22;6730;46.248;6.930;2023-07-13T12:01:59;21.00;99.90
13322;DHT22;6730;46.248;6.930;2023-07-13T12:04:28;21.10;99.90
13322;DHT22;6730;46.248;6.930;2023-07-13T12:07:05;21.20;99.90
13322;DHT22;6730;46.248;6.930;2023-07-13T12:09:33;21.20;99.90
13322;DHT22;6730;46.248;6.930;2023-07-13T12:11:59;21.40;99.90
13322;DHT22;6730;46.248;6.930;2023-07-13T12:14:26;21.50;99.90
13322;DHT22;6730;46.248;6.930;2023-07-13T12:16:53;21.60;99.90
13322;DHT22;6730;46.248;6.930;2023-07-13T12:19:25;21.40;99.90
13322;DHT22;6730;46.248;6.930;2023-07-13T12:21:54;21.20;99.90
13322;DHT22;6730;46.248;6.930;2023-07-13T12:24:21;21.10;99.90
13322;DHT22;6730;46.248;6.930;2023-07-13T12:26:59;21.20;99.90
13322;DHT22;6730;46.248;6.930;2023-07-13T12:29:26;21.50;99.90
13322;DHT22;6730;46.248;6.930;2023-07-13T12:31:51;21.20;99.90
13322;DHT22;6730;46.248;6.930;2023-07-13T12:34:22;21.30;99.90
13322;DHT22;6730;46.248;6.930;2023-07-13T12:36:55;21.60;99.90
13322;DHT22;6730;46.248;6.930;2023-07-13T12:39:43;22.00;99.90
13322;DHT22;6730;46.248;6.930;2023-07-13T12:42:29;22.40;99.90
13322;DHT22;6730;46.248;6.930;2023-07-13T12:47:30;22.50;99.90
13322;DHT22;6730;46.248;6.930;2023-07-13T12:50:08;22.40;99.90
13322;DHT22;6730;46.248;6.930;2023-07-13T12:52:38;22.30;99.90
13322;DHT22;6730;46.248;6.930;2023-07-13T12:55:15;22.40;99.90
13322;DHT22;6730;46.248;6.930;2023-07-13T12:57:55;22.10;99.90
13322;DHT22;6730;46.248;6.930;2023-07-13T13:00:30;21.90;99.90
13322;DHT22;6730;46.248;6.930;2023-07-13T13:03:05;21.90;99.90
13322;DHT22;6730;46.248;6.930;2023-07-13T13:05:33;21.90;99.90
13322;DHT22;6730;46.248;6.930;2023-07-13T13:07:59;22.00;99.90
13322;DHT22;6730;46.248;6.930;2023-07-13T13:10:25;21.90;99.90
13322;DHT22;6730;46.248;6.930;2023-07-13T13:12:52;21.40;99.90
13322;DHT22;6730;46.248;6.930;2023-07-13T13:15:18;21.30;99.90
13322;DHT22;6730;46.248;6.930;2023-07-13T13:17:44;21.40;99.90
13322;DHT22;6730;46.248;6.930;2023-07-13T13:20:18;21.30;99.90
13322;DHT22;6730;46.248;6.930;2023-07-13T13:22:44;21.70;99.90
13322;DHT22;6730;46.248;6.930;2023-07-13T13:25:11;21.70;99.90
13322;DHT22;6730;46.248;6.930;2023-07-13T13:27:37;22.10;99.90
13322;DHT22;6730;46.248;6.930;2023-07-13T13:30:14;22.30;99.90
13322;DHT22;6730;46.248;6.930;2023-07-13T13:32:45;22.40;99.90
13322;DHT22;6730;46.248;6.930;2023-07-13T13:35:17;22.40;99.90
13322;DHT22;6730;46.248;6.930;2023-07-13T13:37:44;22.10;99.90
13322;DHT22;6730;46.248;6.930;2023-07-13T13:40:15;21.70;99.90
13322;DHT22;6730;46.248;6.930;2023-07-13T13:42:41;21.70;99.90
13322;DHT22;6730;46.248;6.930;2023-07-13T13:45:09;21.50;99.90
13322;DHT22;6730;46.248;6.930;2023-07-13T13:47:35;21.60;99.90
13322;DHT22;6730;46.248;6.930;2023-07-13T13:50:07;22.00;99.90
13322;DHT22;6730;46.248;6.930;2023-07-13T13:52:35;22.20;99.90
13322;DHT22;6730;46.248;6.930;2023-07-13T13:55:00;22.40;99.90
13322;DHT22;6730;46.248;6.930;2023-07-13T13:57:26;22.40;99.90
13322;DHT22;6730;46.248;6.930;2023-07-13T13:59:52;22.40;99.90
13322;DHT22;6730;46.248;6.930;2023-07-13T14:02:28;22.60;99.90
13322;DHT22;6730;46.248;6.930;2023-07-13T14:04:56;22.70;99.90
13322;DHT22;6730;46.248;6.930;2023-07-13T14:07:22;22.60;99.90
13322;DHT22;6730;46.248;6.930;2023-07-13T14:09:48;22.60;99.90
13322;DHT22;6730;46.248;6.930;2023-07-13T14:12:14;22.80;99.90
13322;DHT22;6730;46.248;6.930;2023-07-13T14:14:39;22.90;99.90
13322;DHT22;6730;46.248;6.930;2023-07-13T14:17:24;22.90;99.90
13322;DHT22;6730;46.248;6.930;2023-07-13T14:19:51;23.00;99.90
13322;DHT22;6730;46.248;6.930;2023-07-13T14:22:20;22.90;99.90
13322;DHT22;6730;46.248;6.930;2023-07-13T14:24:46;22.90;99.90
13322;DHT22;6730;46.248;6.930;2023-07-13T14:27:12;22.90;99.90
13322;DHT22;6730;46.248;6.930;2023-07-13T14:29:38;22.90;99.90
13322;DHT22;6730;46.248;6.930;2023-07-13T14:32:07;22.90;99.90
13322;DHT22;6730;46.248;6.930;2023-07-13T14:34:33;22.70;99.90
13322;DHT22;6730;46.248;6.930;2023-07-13T14:36:59;22.60;99.90
13322;DHT22;6730;46.248;6.930;2023-07-13T14:39:25;22.60;99.90
13322;DHT22;6730;46.248;6.930;2023-07-13T14:41:52;22.80;99.90
13322;DHT22;6730;46.248;6.930;2023-07-13T14:44:25;22.80;99.90
13322;DHT22;6730;46.248;6.930;2023-07-13T14:46:51;22.90;99.90
13322;DHT22;6730;46.248;6.930;2023-07-13T14:51:49;22.60;99.90
13322;DHT22;6730;46.248;6.930;2023-07-13T14:54:15;22.00;99.90
13322;DHT22;6730;46.248;6.930;2023-07-13T14:56:40;21.90;99.90
13322;DHT22;6730;46.248;6.930;2023-07-13T14:59:06;22.10;99.90
13322;DHT22;6730;46.248;6.930;2023-07-13T15:01:34;22.50;99.90
13322;DHT22;6730;46.248;6.930;2023-07-13T15:04:00;22.90;99.90
13322;DHT22;6730;46.248;6.930;2023-07-13T15:06:26;22.90;99.90
13322;DHT22;6730;46.248;6.930;2023-07-13T15:08:51;22.90;99.90
13322;DHT22;6730;46.248;6.930;2023-07-13T15:11:17;22.70;99.90
13322;DHT22;6730;46.248;6.930;2023-07-13T15:13:44;22.60;99.90
13322;DHT22;6730;46.248;6.930;2023-07-13T15:16:17;22.20;99.90
13322;DHT22;6730;46.248;6.930;2023-07-13T15:18:45;22.00;99.90
13322;DHT22;6730;46.248;6.930;2023-07-13T15:21:17;22.00;99.90
13322;DHT22;6730;46.248;6.930;2023-07-13T15:23:44;21.80;99.90
13322;DHT22;6730;46.248;6.930;2023-07-13T15:26:13;21.90;99.90
13322;DHT22;6730;46.248;6.930;2023-07-13T15:28:40;21.80;99.90
13322;DHT22;6730;46.248;6.930;2023-07-13T15:31:18;22.00;99.90
13322;DHT22;6730;46.248;6.930;2023-07-13T15:33:47;22.40;99.90
13322;DHT22;6730;46.248;6.930;2023-07-13T15:36:18;22.60;99.90
13322;DHT22;6730;46.248;6.930;2023-07-13T15:38:53;22.50;99.90
13322;DHT22;6730;46.248;6.930;2023-07-13T15:41:22;22.40;99.90
13322;DHT22;6730;46.248;6.930;2023-07-13T15:43:50;22.70;99.90
13322;DHT22;6730;46.248;6.930;2023-07-13T15:46:20;23.10;99.90
13322;DHT22;6730;46.248;6.930;2023-07-13T15:48:48;23.30;99.90
13322;DHT22;6730;46.248;6.930;2023-07-13T15:51:29;23.50;99.90
13322;DHT22;6730;46.248;6.930;2023-07-13T15:54:00;23.70;99.90
13322;DHT22;6730;46.248;6.930;2023-07-13T15:56:29;23.90;99.90
13322;DHT22;6730;46.248;6.930;2023-07-13T15:58:58;23.70;99.90
13322;DHT22;6730;46.248;6.930;2023-07-13T16:01:24;23.90;99.90
13322;DHT22;6730;46.248;6.930;2023-07-13T16:03:51;24.00;99.90
13322;DHT22;6730;46.248;6.930;2023-07-13T16:06:24;23.90;99.90
13322;DHT22;6730;46.248;6.930;2023-07-13T16:08:51;23.90;99.90
13322;DHT22;6730;46.248;6.930;2023-07-13T16:11:23;23.80;99.90
13322;DHT22;6730;46.248;6.930;2023-07-13T16:13:50;23.80;99.90
13322;DHT22;6730;46.248;6.930;2023-07-13T16:16:26;23.70;99.90
13322;DHT22;6730;46.248;6.930;2023-07-13T16:18:58;23.60;99.90
13322;DHT22;6730;46.248;6.930;2023-07-13T16:21:26;23.50;99.90
13322;DHT22;6730;46.248;6.930;2023-07-13T16:23:53;23.40;99.90
13322;DHT22;6730;46.248;6.930;2023-07-13T16:26:31;23.40;99.90
13322;DHT22;6730;46.248;6.930;2023-07-13T16:29:13;23.50;99.90
13322;DHT22;6730;46.248;6.930;2023-07-13T16:31:40;23.50;99.90